Time;durP1;ratioP1;P1;durP2;ratioP2;P2;SDS_P1;SDS_P2;PMS_P1;PMS_P2;Temp;Humidity;BMP_temperature;BMP_pressure;BME280_temperature;BME280_humidity;BME280_pressure;Samples;Min_cycle;Max_cycle;Signal;HPM_P1;HPM_P2
2023/04/11 00:01:54;;;;;;;1.30;1.17;;;;;;;11.30;100.00;98174.13;4163896;28;20229;-47
2023/04/11 00:03:56;;;;;;;1.10;1.00;;;;;;;11.34;100.00;98180.72;4174410;28;20210;-47
2023/04/11 00:05:59;;;;;;;1.35;1.20;;;;;;;11.40;100.00;98179.69;4172451;28;20249;-48
2023/04/11 00:08:00;;;;;;;1.23;1.00;;;;;;;11.27;100.00;98180.13;4192437;28;20314;-47
2023/04/11 00:10:02;;;;;;;2.70;1.00;;;;;;;11.30;100.00;98167.84;4177051;28;20661;-47
2023/04/11 00:12:04;;;;;;;1.25;1.08;;;;;;;11.18;100.00;98154.31;4176685;28;20212;-48
2023/04/11 00:14:07;;;;;;;1.30;1.20;;;;;;;11.12;100.00;98168.22;4166545;28;20235;-47
2023/04/11 00:16:10;;;;;;;1.23;0.93;;;;;;;11.26;100.00;98183.97;4168046;28;20223;-47
2023/04/11 00:18:11;;;;;;;0.93;0.90;;;;;;;11.23;100.00;98178.19;4167001;28;20623;-47
2023/04/11 00:20:13;;;;;;;1.92;1.08;;;;;;;11.31;100.00;98177.69;4165540;28;20218;-47
2023/04/11 00:22:16;;;;;;;1.00;0.93;;;;;;;11.23;100.00;98169.97;4166943;28;20570;-47
2023/04/11 00:24:18;;;;;;;1.42;1.20;;;;;;;10.94;100.00;98174.09;4167299;28;20242;-47
2023/04/11 00:26:20;;;;;;;1.10;1.00;;;;;;;10.78;100.00;98186.81;4159299;28;20212;-47
2023/04/11 00:28:22;;;;;;;2.38;1.20;;;;;;;10.66;100.00;98187.22;4170522;28;20855;-47
2023/04/11 00:30:24;;;;;;;0.90;0.90;;;;;;;10.67;100.00;98197.13;4175269;28;20632;-47
2023/04/11 00:32:26;;;;;;;0.70;0.70;;;;;;;10.53;100.00;98193.13;4168670;28;20669;-47
2023/04/11 00:34:28;;;;;;;1.17;0.98;;;;;;;10.37;100.00;98200.34;4171173;28;20554;-46
2023/04/11 00:36:30;;;;;;;1.35;1.25;;;;;;;10.26;100.00;98200.47;4186416;28;20216;-47
2023/04/11 00:38:32;;;;;;;1.92;0.98;;;;;;;10.41;100.00;98187.81;4167629;28;20212;-48
2023/04/11 00:40:34;;;;;;;2.55;0.82;;;;;;;10.47;100.00;98183.22;4202511;28;20308;-47
2023/04/11 00:42:35;;;;;;;1.15;1.15;;;;;;;10.28;100.00;98184.66;4179189;28;20302;-47
2023/04/11 00:44:39;;;;;;;2.63;0.82;;;;;;;10.33;100.00;98166.38;4164021;28;20330;-47
2023/04/11 00:46:42;;;;;;;1.48;1.38;;;;;;;10.16;100.00;98156.63;4172024;28;20240;-47
2023/04/11 00:48:46;;;;;;;1.15;1.10;;;;;;;10.15;100.00;98172.19;4171678;28;20203;-47
2023/04/11 00:50:48;;;;;;;1.50;1.10;;;;;;;10.31;100.00;98184.13;4171897;28;20196;-47
2023/04/11 00:52:50;;;;;;;1.00;0.90;;;;;;;10.40;100.00;98177.94;4171312;28;20729;-47
2023/04/11 00:54:52;;;;;;;0.90;0.90;;;;;;;10.23;100.00;98176.38;4204436;28;20710;-47
2023/04/11 00:57:01;;;;;;;1.73;1.02;;;;;;;10.30;100.00;98171.53;4173617;28;20288;-46
2023/04/11 00:59:03;;;;;;;0.82;0.82;;;;;;;10.29;100.00;98164.44;4169510;28;20804;-47
2023/04/11 01:01:08;;;;;;;1.50;0.95;;;;;;;10.30;100.00;98166.91;4159269;28;20324;-47
2023/04/11 01:03:10;;;;;;;1.75;1.00;;;;;;;10.14;100.00;98167.00;4174480;28;20270;-47
2023/04/11 01:05:13;;;;;;;2.40;0.70;;;;;;;10.12;100.00;98161.78;4172447;28;20601;-47
2023/04/11 01:07:16;;;;;;;1.10;0.70;;;;;;;10.09;100.00;98166.94;4180241;28;20227;-47
2023/04/11 01:09:20;;;;;;;2.35;1.13;;;;;;;9.95;100.00;98168.38;4179333;28;20242;-47
2023/04/11 01:11:22;;;;;;;1.77;0.95;;;;;;;9.93;100.00;98165.88;4179624;28;20207;-47
2023/04/11 01:13:24;;;;;;;1.80;0.80;;;;;;;10.10;100.00;98171.31;4171627;28;20247;-47
2023/04/11 01:15:25;;;;;;;2.95;1.30;;;;;;;10.11;100.00;98172.97;4172174;28;20216;-47
2023/04/11 01:17:27;;;;;;;1.13;0.90;;;;;;;10.26;100.00;98186.78;4170147;28;20315;-47
2023/04/11 01:19:30;;;;;;;0.80;0.80;;;;;;;10.45;100.00;98185.38;4170234;28;20207;-47
2023/04/11 01:21:32;;;;;;;0.98;0.88;;;;;;;10.40;100.00;98182.56;4168038;28;20271;-48
2023/04/11 01:23:34;;;;;;;2.90;0.93;;;;;;;10.44;100.00;98183.72;4169077;28;20275;-48
2023/04/11 01:25:39;;;;;;;1.85;0.88;;;;;;;10.61;100.00;98179.00;4168480;28;20235;-47
2023/04/11 01:27:41;;;;;;;1.58;0.80;;;;;;;10.43;100.00;98193.03;4179196;28;20264;-48
2023/04/11 01:29:43;;;;;;;2.35;0.80;;;;;;;10.49;100.00;98186.53;4169596;28;20315;-47
2023/04/11 01:31:45;;;;;;;1.98;0.77;;;;;;;10.21;100.00;98195.78;4173364;28;20344;-47
2023/04/11 01:33:47;;;;;;;0.98;0.93;;;;;;;10.17;100.00;98194.66;4174896;28;20657;-47
2023/04/11 01:35:48;;;;;;;1.00;0.90;;;;;;;10.23;100.00;98198.25;4194659;28;20304;-48
2023/04/11 01:37:50;;;;;;;1.13;1.02;;;;;;;10.20;100.00;98198.75;4169620;28;20230;-46
2023/04/11 01:39:52;;;;;;;1.55;0.90;;;;;;;10.13;100.00;98193.50;4190292;28;20277;-47
2023/04/11 01:41:55;;;;;;;1.10;0.77;;;;;;;9.95;100.00;98184.75;4178992;28;20275;-47
2023/04/11 01:43:58;;;;;;;1.25;0.77;;;;;;;9.95;100.00;98190.22;4179468;28;20665;-47
2023/04/11 01:46:00;;;;;;;1.20;0.80;;;;;;;9.95;100.00;98184.75;4171404;28;20780;-47
2023/04/11 01:48:07;;;;;;;3.15;1.27;;;;;;;9.91;100.00;98178.13;4175202;28;20234;-49
2023/04/11 01:50:10;;;;;;;1.92;1.13;;;;;;;9.91;100.00;98178.13;4169835;28;20262;-47
2023/04/11 01:52:12;;;;;;;1.25;0.90;;;;;;;9.95;100.00;98174.63;4168440;28;20208;-47
2023/04/11 01:54:14;;;;;;;1.90;1.00;;;;;;;9.78;100.00;98162.13;4155081;28;20252;-47
2023/04/11 01:56:16;;;;;;;1.75;1.20;;;;;;;9.82;100.00;98168.75;4178891;28;20218;-47
2023/04/11 01:58:17;;;;;;;1.20;1.10;;;;;;;9.91;100.00;98176.25;4169935;28;20727;-47
2023/04/11 02:00:19;;;;;;;1.20;1.00;;;;;;;9.89;100.00;98170.19;4171948;28;20319;-47
2023/04/11 02:02:21;;;;;;;2.50;1.27;;;;;;;9.81;100.00;98167.09;4172779;28;20224;-47
2023/04/11 02:04:23;;;;;;;2.35;1.45;;;;;;;9.66;100.00;98164.13;4169969;28;20290;-46
2023/04/11 02:06:26;;;;;;;2.45;1.25;;;;;;;9.72;100.00;98179.53;4169898;28;20212;-47
2023/04/11 02:08:28;;;;;;;2.17;1.30;;;;;;;9.86;100.00;98167.13;4169655;28;20215;-47
2023/04/11 02:10:30;;;;;;;2.53;1.00;;;;;;;9.74;100.00;98174.66;4179037;28;20306;-47
2023/04/11 02:12:32;;;;;;;2.47;1.33;;;;;;;9.79;100.00;98170.06;4167904;28;20235;-46
2023/04/11 02:14:44;;;;;;;2.75;1.60;;;;;;;9.67;100.00;98176.75;4185997;28;20235;-47
2023/04/11 02:16:50;;;;;;;1.70;1.52;;;;;;;9.53;100.00;98180.88;4171560;28;20224;-48
2023/04/11 02:18:52;;;;;;;2.97;1.92;;;;;;;9.71;100.00;98183.34;4169258;28;20577;-47
2023/04/11 02:20:55;;;;;;;2.38;1.55;;;;;;;9.61;100.00;98183.22;4163888;28;20232;-47
2023/04/11 02:22:57;;;;;;;1.17;1.05;;;;;;;9.62;100.00;98179.41;4178597;28;20235;-47
2023/04/11 02:24:59;;;;;;;2.42;1.70;;;;;;;9.76;100.00;98186.97;4169839;28;20380;-48
2023/04/11 02:27:01;;;;;;;2.97;1.65;;;;;;;9.90;100.00;98190.16;4168716;28;20228;-48
2023/04/11 02:29:03;;;;;;;2.63;1.17;;;;;;;9.92;100.00;98191.56;4170466;28;20303;-48
2023/04/11 02:31:04;;;;;;;2.33;1.20;;;;;;;9.88;100.00;98189.59;4171536;28;20642;-48
2023/04/11 02:33:06;;;;;;;2.45;1.13;;;;;;;9.96;100.00;98191.88;4178912;28;20216;-48
2023/04/11 02:35:08;;;;;;;1.95;1.30;;;;;;;10.04;100.00;98188.72;4152972;28;20217;-48
2023/04/11 02:40:32;;;;;;;3.45;1.70;;;;;;;9.92;100.00;98179.78;4168095;28;20245;-48
2023/04/11 02:42:34;;;;;;;9.35;1.27;;;;;;;9.84;100.00;98178.34;4169544;28;20668;-47
2023/04/11 02:44:36;;;;;;;1.63;1.35;;;;;;;9.83;100.00;98186.78;4170342;28;20664;-48
2023/04/11 02:46:38;;;;;;;2.30;1.70;;;;;;;9.91;100.00;98189.06;4177387;28;20721;-48
2023/04/11 02:48:40;;;;;;;2.25;2.15;;;;;;;9.92;100.00;98190.72;4186122;28;20252;-48
2023/04/11 02:50:41;;;;;;;2.35;1.33;;;;;;;9.90;100.00;98192.88;4169545;28;20227;-48
2023/04/11 02:52:44;;;;;;;1.13;1.02;;;;;;;9.84;100.00;98181.06;4173900;28;20204;-48
2023/04/11 02:54:48;;;;;;;1.27;0.98;;;;;;;9.80;100.00;98192.75;4170437;28;20231;-48
2023/04/11 02:56:51;;;;;;;1.38;1.27;;;;;;;9.81;100.00;98188.97;4161380;28;20272;-47
2023/04/11 02:58:53;;;;;;;2.72;1.45;;;;;;;9.94;100.00;98196.78;4170180;28;20223;-48
2023/04/11 03:00:55;;;;;;;1.58;1.10;;;;;;;9.85;100.00;98201.00;4183885;28;20632;-48
2023/04/11 03:02:57;;;;;;;2.53;1.05;;;;;;;9.79;100.00;98191.94;4177683;28;20235;-48
2023/04/11 03:05:03;;;;;;;2.58;1.15;;;;;;;9.71;100.00;98195.09;4161147;28;20212;-47
2023/04/11 03:07:05;;;;;;;2.63;1.23;;;;;;;9.76;100.00;98208.00;4177387;28;20618;-47
2023/04/11 03:09:06;;;;;;;1.55;1.05;;;;;;;9.73;100.00;98219.41;4166403;28;20219;-48
2023/04/11 03:11:08;;;;;;;5.30;1.73;;;;;;;9.76;100.00;98236.13;4168357;28;20295;-48
2023/04/11 03:13:10;;;;;;;3.40;1.05;;;;;;;9.70;100.00;98225.41;4178016;28;21058;-48
2023/04/11 03:15:14;;;;;;;1.83;1.20;;;;;;;9.62;100.00;98234.03;4172946;28;20262;-47
2023/04/11 03:17:16;;;;;;;1.35;1.20;;;;;;;9.56;100.00;98229.56;4167489;28;20242;-48
2023/04/11 03:19:17;;;;;;;1.90;1.30;;;;;;;9.60;100.00;98230.69;4167749;28;20307;-48
2023/04/11 03:21:19;;;;;;;3.53;1.20;;;;;;;9.52;100.00;98218.31;4205014;28;20286;-48
2023/04/11 03:23:21;;;;;;;1.60;1.17;;;;;;;9.46;100.00;98222.03;4185988;28;20661;-48
2023/04/11 03:25:23;;;;;;;1.30;1.13;;;;;;;9.44;100.00;98228.84;4170016;28;20295;-48
2023/04/11 03:27:25;;;;;;;1.13;1.00;;;;;;;9.43;100.00;98225.25;4177980;28;20231;-47
2023/04/11 03:29:27;;;;;;;2.75;1.20;;;;;;;9.40;100.00;98208.56;4177634;28;20601;-47
2023/04/11 03:31:29;;;;;;;3.20;1.10;;;;;;;9.38;100.00;98207.97;4177481;28;20210;-47
2023/04/11 03:33:31;;;;;;;2.58;1.50;;;;;;;9.37;100.00;98214.53;4177205;28;20215;-48
2023/04/11 03:35:33;;;;;;;5.57;0.98;;;;;;;9.19;100.00;98201.97;4177138;28;20210;-48
2023/04/11 03:37:35;;;;;;;1.58;1.05;;;;;;;9.25;100.00;98206.44;4174799;28;20638;-47
2023/04/11 03:39:36;;;;;;;2.75;1.17;;;;;;;9.19;100.00;98206.59;4171729;28;20239;-48
2023/04/11 03:41:38;;;;;;;4.95;1.42;;;;;;;9.32;100.00;98217.16;4169241;28;20678;-48
2023/04/11 03:43:40;;;;;;;3.45;1.20;;;;;;;9.34;100.00;98220.50;4203260;28;20290;-48
2023/04/11 03:45:42;;;;;;;2.13;1.17;;;;;;;9.41;100.00;98215.69;4188561;28;20235;-49
2023/04/11 03:47:43;;;;;;;2.08;1.13;;;;;;;9.29;100.00;98212.22;4171621;28;20274;-47
2023/04/11 03:49:45;;;;;;;1.40;0.90;;;;;;;9.14;100.00;98206.53;4171148;28;20618;-49
2023/04/11 03:51:47;;;;;;;2.40;1.20;;;;;;;8.91;100.00;98214.84;4160504;28;20204;-48
2023/04/11 03:53:51;;;;;;;6.75;1.45;;;;;;;9.00;100.00;98203.28;4153883;28;20216;-47
2023/04/11 03:55:54;;;;;;;2.13;0.93;;;;;;;8.82;100.00;98202.69;4185127;28;20588;-49
2023/04/11 03:57:55;;;;;;;1.38;1.20;;;;;;;8.81;100.00;98209.25;4168111;28;20263;-49
2023/04/11 03:59:57;;;;;;;1.88;1.10;;;;;;;8.82;100.00;98227.25;4167940;28;20254;-49
2023/04/11 04:01:59;;;;;;;1.67;1.33;;;;;;;8.92;100.00;98232.88;4167523;28;20234;-47
2023/04/11 04:04:01;;;;;;;1.35;1.23;;;;;;;9.00;100.00;98240.66;4168286;28;20207;-49
2023/04/11 04:06:04;;;;;;;0.98;0.80;;;;;;;9.01;100.00;98239.59;4160083;28;20208;-49
2023/04/11 04:11:27;;;;;;;0.85;0.80;;;;;;;9.07;100.00;98230.41;4167773;28;20206;-48
2023/04/11 04:13:29;;;;;;;1.00;0.90;;;;;;;9.20;100.00;98241.00;4169174;28;20247;-47
2023/04/11 04:15:31;;;;;;;0.88;0.85;;;;;;;9.14;100.00;98242.00;4170698;28;20299;-48
2023/04/11 04:17:33;;;;;;;2.20;1.00;;;;;;;9.24;100.00;98233.97;4173658;28;20711;-47
2023/04/11 04:19:34;;;;;;;1.77;1.10;;;;;;;9.24;100.00;98242.16;4177125;28;20965;-47
2023/04/11 04:21:36;;;;;;;2.53;1.05;;;;;;;9.30;100.00;98235.72;4171968;28;20299;-47
2023/04/11 04:23:46;;;;;;;2.05;1.00;;;;;;;9.10;100.00;98240.84;4170642;28;20216;-47
2023/04/11 04:25:49;;;;;;;1.10;1.00;;;;;;;9.12;100.00;98247.72;4162090;28;20259;-48
2023/04/11 04:27:52;;;;;;;1.27;0.90;;;;;;;9.08;100.00;98238.34;4201817;28;20626;-48
2023/04/11 04:29:55;;;;;;;3.17;1.40;;;;;;;9.01;100.00;98253.25;4172343;28;20214;-48
2023/04/11 04:32:09;;;;;;;2.33;1.23;;;;;;;9.02;100.00;98265.81;4175898;28;20316;-47
2023/04/11 04:34:11;;;;;;;3.90;1.50;;;;;;;9.07;100.00;98268.59;4172876;28;20286;-48
2023/04/11 04:36:16;;;;;;;1.00;0.95;;;;;;;9.10;100.00;98273.59;4193199;28;20707;-47
2023/04/11 04:38:18;;;;;;;1.33;1.27;;;;;;;9.06;100.00;98280.59;4172798;28;20305;-47
2023/04/11 04:40:21;;;;;;;2.00;1.30;;;;;;;9.11;100.00;98281.53;4193549;28;20297;-48
2023/04/11 04:42:24;;;;;;;1.85;1.00;;;;;;;9.02;100.00;98276.72;4169811;28;20728;-47
2023/04/11 04:44:26;;;;;;;1.05;0.88;;;;;;;9.03;100.00;98281.09;4166225;28;20218;-47
2023/04/11 04:46:30;;;;;;;1.67;1.00;;;;;;;9.01;100.00;98283.25;4176310;28;20522;-47
2023/04/11 04:48:32;;;;;;;1.48;1.13;;;;;;;9.07;100.00;98290.44;4176731;28;20246;-46
2023/04/11 04:50:34;;;;;;;2.35;1.02;;;;;;;9.03;100.00;98289.28;4165067;28;20209;-46
2023/04/11 04:52:36;;;;;;;2.03;1.15;;;;;;;8.91;100.00;98285.78;4161506;28;20243;-45
2023/04/11 04:54:38;;;;;;;2.25;1.45;;;;;;;8.89;100.00;98298.88;4154686;28;20293;-46
2023/04/11 04:56:40;;;;;;;2.63;1.55;;;;;;;8.85;100.00;98292.22;4167992;28;20232;-45
2023/04/11 04:58:45;;;;;;;3.80;1.30;;;;;;;8.74;100.00;98302.13;4153638;28;20618;-45
2023/04/11 05:00:54;;;;;;;4.97;1.08;;;;;;;8.86;100.00;98310.25;4160509;28;20244;-45
2023/04/11 05:02:56;;;;;;;1.50;1.15;;;;;;;8.80;100.00;98317.53;4167969;28;20347;-45
2023/04/11 05:05:02;;;;;;;3.75;1.77;;;;;;;8.68;100.00;98307.75;4175622;28;20320;-46
2023/04/11 05:07:05;;;;;;;1.08;1.02;;;;;;;8.76;100.00;98320.97;4175684;28;20271;-45
2023/04/11 05:09:06;;;;;;;3.08;1.30;;;;;;;8.73;100.00;98316.00;4176449;28;20212;-46
2023/04/11 05:11:08;;;;;;;3.03;1.40;;;;;;;8.58;100.00;98315.69;4170656;28;20246;-48
2023/04/11 05:13:10;;;;;;;3.50;1.42;;;;;;;8.63;100.00;98313.09;4187398;28;20203;-48
2023/04/11 05:15:13;;;;;;;1.13;0.90;;;;;;;8.62;100.00;98314.16;4188946;28;20541;-46
2023/04/11 05:17:15;;;;;;;2.38;1.02;;;;;;;8.48;100.00;98319.06;4170214;28;20228;-48
2023/04/11 05:19:17;;;;;;;3.47;1.63;;;;;;;8.50;100.00;98314.19;4199079;28;20211;-48
2023/04/11 05:21:19;;;;;;;1.52;0.93;;;;;;;8.49;100.00;98315.25;4187504;28;20673;-45
2023/04/11 05:23:21;;;;;;;1.75;1.55;;;;;;;8.48;100.00;98324.50;4168140;28;20709;-48
2023/04/11 05:25:22;;;;;;;2.22;1.30;;;;;;;8.59;100.00;98320.94;4169293;28;20215;-48
2023/04/11 05:27:24;;;;;;;1.73;1.08;;;;;;;8.66;100.00;98320.78;4171161;28;20268;-48
2023/04/11 05:29:28;;;;;;;2.95;1.38;;;;;;;8.53;100.00;98327.34;4170975;28;20278;-47
2023/04/11 05:31:30;;;;;;;1.90;1.40;;;;;;;8.57;100.00;98335.88;4171904;28;20211;-46
2023/04/11 05:33:32;;;;;;;2.15;1.30;;;;;;;8.74;100.00;98340.31;4172279;28;20259;-46
2023/04/11 05:35:33;;;;;;;3.90;1.38;;;;;;;8.52;100.00;98331.16;4189170;28;20199;-45
2023/04/11 05:37:36;;;;;;;4.40;1.55;;;;;;;8.59;100.00;98325.53;4179515;28;20237;-47
2023/04/11 05:39:37;;;;;;;4.10;1.98;;;;;;;8.61;100.00;98331.59;4152361;28;20212;-46
2023/04/11 05:41:39;;;;;;;2.78;1.30;;;;;;;8.56;100.00;98335.03;4152723;28;20303;-48
2023/04/11 05:43:41;;;;;;;4.18;1.70;;;;;;;8.71;100.00;98342.69;4167449;28;20228;-45
2023/04/11 05:45:52;;;;;;;11.10;1.42;;;;;;;8.66;100.00;98337.13;4169952;28;20288;-46
2023/04/11 05:47:55;;;;;;;4.57;1.60;;;;;;;8.48;100.00;98340.06;4173336;28;20806;-45
2023/04/11 05:49:57;;;;;;;2.92;1.33;;;;;;;8.59;100.00;98359.09;4162809;28;20235;-45
2023/04/11 05:51:58;;;;;;;4.13;1.65;;;;;;;8.65;100.00;98357.31;4178983;28;20256;-46
2023/04/11 05:54:00;;;;;;;3.00;1.55;;;;;;;8.79;100.00;98364.13;4179136;28;20218;-48
2023/04/11 05:56:02;;;;;;;3.78;1.73;;;;;;;8.96;100.00;98360.38;4152525;28;20209;-48
2023/04/11 05:58:04;;;;;;;2.78;1.70;;;;;;;9.01;100.00;98356.94;4171718;28;20236;-48
2023/04/11 06:00:15;;;;;;;2.38;2.00;;;;;;;9.16;100.00;98365.41;4172837;28;20667;-48
2023/04/11 06:02:16;;;;;;;5.72;2.13;;;;;;;9.35;100.00;98377.78;4172326;28;20222;-48
2023/04/11 06:04:18;;;;;;;7.18;2.10;;;;;;;9.40;100.00;98367.78;4170631;28;20213;-49
2023/04/11 06:06:20;;;;;;;3.58;1.60;;;;;;;9.23;100.00;98368.81;4174426;28;20201;-46
2023/04/11 06:08:22;;;;;;;2.92;2.08;;;;;;;9.19;100.00;98376.69;4169741;28;20303;-48
2023/04/11 06:10:24;;;;;;;4.32;1.85;;;;;;;9.11;100.00;98384.41;4204715;28;20211;-48
2023/04/11 06:12:27;;;;;;;3.03;1.58;;;;;;;9.14;100.00;98383.94;4174046;28;20201;-49
2023/04/11 06:14:28;;;;;;;2.63;1.88;;;;;;;9.25;100.00;98374.84;4169407;28;20667;-48
2023/04/11 06:16:32;;;;;;;6.35;1.80;;;;;;;9.04;100.00;98381.84;4172131;28;20222;-46
2023/04/11 06:18:34;;;;;;;6.72;2.97;;;;;;;9.06;100.00;98374.25;4178687;28;20212;-46
2023/04/11 06:20:35;;;;;;;6.68;2.00;;;;;;;9.09;100.00;98367.47;4169770;28;20215;-48
2023/04/11 06:22:39;;;;;;;10.55;1.65;;;;;;;9.35;100.00;98378.59;4168777;28;20255;-46
2023/04/11 06:24:40;;;;;;;5.95;2.03;;;;;;;9.52;100.00;98374.00;4187649;28;20212;-46
2023/04/11 06:26:42;;;;;;;3.03;1.38;;;;;;;9.76;100.00;98382.88;4178554;28;20256;-46
2023/04/11 06:28:44;;;;;;;6.85;2.10;;;;;;;9.47;100.00;98384.00;4177367;28;20219;-46
2023/04/11 06:30:46;;;;;;;4.13;2.13;;;;;;;9.44;100.00;98389.97;4204312;28;20286;-47
2023/04/11 06:32:47;;;;;;;4.50;1.60;;;;;;;9.24;100.00;98395.03;4186853;28;20207;-46
2023/04/11 06:34:50;;;;;;;12.80;1.95;;;;;;;9.43;100.00;98405.50;4176617;28;20266;-47
2023/04/11 06:36:51;;;;;;;4.78;1.80;;;;;;;9.41;100.00;98396.75;4177094;28;20231;-49
2023/04/11 06:38:53;;;;;;;3.15;1.40;;;;;;;9.65;100.00;98397.44;4178941;28;20220;-47
2023/04/11 06:40:55;;;;;;;6.53;1.88;;;;;;;9.90;100.00;98406.06;4152829;28;20224;-47
2023/04/11 06:42:58;;;;;;;3.83;1.88;;;;;;;9.68;100.00;98408.69;4170788;28;20236;-47
2023/04/11 06:45:00;;;;;;;8.68;3.55;;;;;;;9.98;100.00;98413.84;4178160;28;20211;-47
2023/04/11 06:47:02;;;;;;;9.45;1.50;;;;;;;10.03;100.00;98417.50;4172240;28;20315;-47
2023/04/11 06:49:07;;;;;;;10.68;1.80;;;;;;;10.04;100.00;98419.19;4173608;28;20212;-47
2023/04/11 06:51:09;;;;;;;1.95;1.30;;;;;;;10.26;100.00;98427.44;4178382;28;20236;-47
2023/04/11 06:53:11;;;;;;;8.85;1.48;;;;;;;10.29;100.00;98421.50;4155646;28;20744;-47
2023/04/11 06:55:14;;;;;;;3.60;1.35;;;;;;;10.59;100.00;98424.66;4173595;28;20216;-47
2023/04/11 06:57:16;;;;;;;5.22;1.58;;;;;;;10.63;99.87;98432.13;4161637;28;20336;-47
2023/04/11 06:59:19;;;;;;;5.55;1.83;;;;;;;10.20;98.95;98422.97;4170113;28;20224;-47
2023/04/11 07:01:24;;;;;;;3.88;1.40;;;;;;;10.73;98.95;98418.56;4171244;28;20281;-46
2023/04/11 07:03:26;;;;;;;4.45;1.23;;;;;;;10.36;98.21;98430.34;4170418;28;20226;-46
2023/04/11 07:05:28;;;;;;;4.25;1.85;;;;;;;10.39;99.99;98438.03;4169848;28;20459;-47
2023/04/11 07:07:30;;;;;;;3.85;1.55;;;;;;;10.75;99.41;98421.06;4172365;28;20223;-47
2023/04/11 07:09:32;;;;;;;4.80;2.33;;;;;;;10.48;96.62;98418.22;4184331;28;20258;-47
2023/04/11 07:11:34;;;;;;;3.05;1.88;;;;;;;10.75;96.54;98423.78;4178334;28;20307;-47
2023/04/11 07:13:35;;;;;;;2.65;1.15;;;;;;;10.88;95.81;98419.59;4190561;28;20264;-47
2023/04/11 07:15:44;;;;;;;3.50;1.25;;;;;;;11.07;95.80;98418.19;4166198;28;20315;-47
2023/04/11 07:20:51;;;;;;;1.60;1.20;;;;;;;11.68;91.15;98425.19;4170281;28;20641;-47
2023/04/11 07:22:53;;;;;;;4.43;1.83;;;;;;;11.65;90.51;98423.78;4169707;28;20607;-47
2023/04/11 07:24:56;;;;;;;5.05;1.75;;;;;;;11.19;91.28;98418.06;4170455;28;20208;-47
2023/04/11 07:27:00;;;;;;;4.32;1.63;;;;;;;11.07;91.08;98418.19;4185844;28;20219;-46
2023/04/11 07:29:02;;;;;;;3.63;1.48;;;;;;;11.32;92.14;98440.38;4173314;28;20239;-47
2023/04/11 07:31:04;;;;;;;11.02;1.98;;;;;;;11.98;90.15;98431.78;4188120;28;20239;-47
2023/04/11 07:33:06;;;;;;;6.43;2.63;;;;;;;11.87;90.10;98432.78;4172058;28;20204;-47
2023/04/11 07:35:08;;;;;;;3.55;1.08;;;;;;;12.08;89.83;98418.16;4160524;28;20859;-47
2023/04/11 07:37:11;;;;;;;6.82;1.65;;;;;;;11.96;89.98;98433.16;4160505;28;20260;-47
2023/04/11 07:39:14;;;;;;;5.13;1.35;;;;;;;12.51;90.70;98439.88;4192087;28;20211;-47
2023/04/11 07:41:15;;;;;;;5.13;2.38;;;;;;;11.88;89.11;98445.41;4169117;28;20244;-46
2023/04/11 07:43:17;;;;;;;7.85;2.00;;;;;;;11.61;89.22;98439.13;4177315;28;20246;-47
2023/04/11 07:45:19;;;;;;;11.32;2.30;;;;;;;11.75;90.29;98429.38;4177412;28;20212;-47
2023/04/11 07:47:21;;;;;;;5.65;1.90;;;;;;;11.94;89.27;98433.41;4177489;28;20224;-48
2023/04/11 07:49:23;;;;;;;3.35;1.88;;;;;;;12.17;87.92;98433.03;4171961;28;20239;-47
2023/04/11 07:51:25;;;;;;;6.43;1.42;;;;;;;13.04;86.44;98436.94;4176832;28;20235;-48
2023/04/11 07:53:29;;;;;;;4.97;1.45;;;;;;;12.66;83.69;98442.75;4168391;28;20209;-47
2023/04/11 07:55:31;;;;;;;6.63;3.03;;;;;;;12.09;85.06;98435.44;4186726;28;20207;-47
2023/04/11 07:57:33;;;;;;;4.68;1.88;;;;;;;12.04;86.53;98440.91;4189487;28;20298;-47
2023/04/11 07:59:34;;;;;;;4.50;1.92;;;;;;;11.85;84.73;98445.09;4176385;28;20251;-47
2023/04/11 08:01:36;;;;;;;5.18;1.38;;;;;;;11.62;86.19;98440.75;4176834;28;20208;-47
2023/04/11 08:03:38;;;;;;;4.15;1.75;;;;;;;11.68;85.55;98438.91;4169690;28;20737;-47
2023/04/11 08:05:41;;;;;;;6.03;1.65;;;;;;;12.11;85.03;98428.59;4176480;28;20689;-46
2023/04/11 08:07:42;;;;;;;10.60;2.03;;;;;;;12.08;83.70;98422.81;4176591;28;20302;-46
2023/04/11 08:09:44;;;;;;;6.57;2.22;;;;;;;12.21;83.63;98423.22;4160751;28;20311;-46
2023/04/11 08:11:46;;;;;;;6.07;2.80;;;;;;;12.48;83.91;98423.94;4190075;28;20238;-47
2023/04/11 08:13:48;;;;;;;4.57;1.35;;;;;;;12.66;85.13;98428.19;4167907;28;20250;-47
2023/04/11 08:15:50;;;;;;;9.15;1.70;;;;;;;13.10;83.48;98427.63;4187068;28;20695;-47
2023/04/11 08:17:55;;;;;;;4.82;1.35;;;;;;;13.14;81.43;98436.97;4168558;28;20220;-46
2023/04/11 08:19:57;;;;;;;5.15;1.40;;;;;;;12.78;81.38;98435.09;4167852;28;20650;-47
2023/04/11 08:21:58;;;;;;;3.80;1.20;;;;;;;12.48;83.70;98451.41;4160245;28;20283;-47
2023/04/11 08:24:00;;;;;;;5.03;1.58;;;;;;;11.62;80.37;98450.88;4192559;28;20255;-46
2023/04/11 08:26:02;;;;;;;4.63;2.08;;;;;;;11.71;82.98;98455.66;4190296;28;20215;-47
2023/04/11 08:28:04;;;;;;;3.08;1.30;;;;;;;11.79;84.18;98448.88;4176848;28;20238;-47
2023/04/11 08:30:07;;;;;;;9.23;2.17;;;;;;;11.50;83.39;98464.72;4168583;28;20208;-46
2023/04/11 08:32:09;;;;;;;6.18;1.77;;;;;;;11.86;82.93;98461.31;4167028;28;20291;-47
2023/04/11 08:34:11;;;;;;;6.65;2.00;;;;;;;12.46;78.27;98458.25;4176874;28;20303;-47
2023/04/11 08:36:13;;;;;;;7.18;1.50;;;;;;;12.22;79.14;98463.25;4176170;28;20662;-46
2023/04/11 08:38:15;;;;;;;2.70;1.55;;;;;;;12.22;77.56;98466.00;4170447;28;20205;-46
2023/04/11 08:40:17;;;;;;;13.10;2.20;;;;;;;12.43;78.99;98469.75;4176700;28;20311;-46
2023/04/11 08:42:28;;;;;;;5.43;2.00;;;;;;;12.28;80.46;98475.94;4177454;28;20244;-46
2023/04/11 08:44:36;;;;;;;3.35;1.35;;;;;;;12.09;79.12;98458.22;4172198;28;20233;-47
2023/04/11 08:46:40;;;;;;;7.50;1.70;;;;;;;12.05;80.31;98473.53;4202059;28;20219;-47
2023/04/11 08:48:42;;;;;;;5.07;2.08;;;;;;;12.08;79.98;98464.78;4168517;28;20356;-46
2023/04/11 08:50:44;;;;;;;4.20;1.67;;;;;;;12.70;78.44;98465.81;4168006;28;20823;-47
2023/04/11 08:52:48;;;;;;;4.00;1.60;;;;;;;12.78;77.17;98459.81;4167641;28;20263;-46
2023/04/11 08:54:53;;;;;;;3.50;1.70;;;;;;;13.32;77.31;98461.25;4168578;28;20290;-47
2023/04/11 08:56:55;;;;;;;5.15;2.35;;;;;;;13.54;75.95;98466.53;4166648;28;20219;-46
2023/04/11 08:58:57;;;;;;;6.05;2.83;;;;;;;13.59;71.23;98458.31;4169752;28;20242;-48
2023/04/11 09:01:28;;;;;;;4.28;1.67;;;;;;;12.61;71.98;98466.56;4170683;28;20208;-47
2023/04/11 09:03:49;;;;;;;3.15;1.27;;;;;;;12.29;77.70;98474.00;4170151;28;20278;-47
2023/04/11 09:05:53;;;;;;;7.65;1.63;;;;;;;12.33;77.93;98464.16;4172145;28;20634;-47
2023/04/11 09:07:58;;;;;;;3.47;1.50;;;;;;;12.46;76.60;98463.72;4156422;28;20260;-46
2023/04/11 09:10:19;;;;;;;4.70;1.65;;;;;;;12.83;77.89;98457.09;4188877;28;20203;-47
2023/04/11 09:12:28;;;;;;;8.75;2.95;;;;;;;13.65;76.08;98462.72;4173563;28;20348;-47
2023/04/11 09:14:30;;;;;;;5.50;3.35;;;;;;;13.61;72.80;98461.59;4153695;28;20201;-50
2023/04/11 09:16:33;;;;;;;2.03;1.65;;;;;;;13.13;75.04;98454.56;4203870;28;20264;-49
2023/04/11 09:18:35;;;;;;;3.90;1.73;;;;;;;13.04;74.89;98461.66;4178917;28;20204;-50
2023/04/11 09:20:37;;;;;;;21.50;1.48;;;;;;;12.71;74.63;98464.72;4170111;28;20209;-51
2023/04/11 09:22:38;;;;;;;2.60;0.95;;;;;;;12.35;75.98;98473.81;4173501;28;20283;-51
2023/04/11 09:24:45;;;;;;;3.95;1.38;;;;;;;12.12;73.89;98473.31;4195576;28;20572;-49
2023/04/11 09:26:47;;;;;;;7.70;1.35;;;;;;;12.03;75.91;98485.88;4179176;28;20259;-49
2023/04/11 09:28:52;;;;;;;7.90;2.35;;;;;;;11.97;76.95;98479.50;4170411;28;20216;-50
2023/04/11 09:30:55;;;;;;;3.97;1.90;;;;;;;12.10;75.85;98481.81;4204804;28;20294;-49
2023/04/11 09:32:57;;;;;;;5.00;1.85;;;;;;;12.21;76.12;98485.47;4180469;28;20295;-49
2023/04/11 09:35:14;;;;;;;7.72;1.90;;;;;;;12.27;75.95;98482.53;4179155;28;20200;-51
2023/04/11 09:37:16;;;;;;;2.42;1.05;;;;;;;13.23;73.40;98486.75;4169885;28;20224;-48
2023/04/11 09:39:18;;;;;;;3.53;1.00;;;;;;;13.32;68.98;98475.00;4194566;28;20203;-49
2023/04/11 09:41:33;;;;;;;4.50;1.13;;;;;;;13.85;69.09;98477.38;4171754;28;20427;-49
2023/04/11 09:43:56;;;;;;;4.82;1.45;;;;;;;13.97;68.68;98477.91;4176925;28;20227;-49
2023/04/11 09:46:10;;;;;;;3.38;1.00;;;;;;;13.91;68.67;98479.00;4171843;28;20220;-49
2023/04/11 09:48:12;;;;;;;5.90;1.27;;;;;;;13.54;67.09;98483.88;4176864;28;20228;-49